Terminal Aerodrome Forecast
Issued by NWS

Home | Current Version | Previous Version | Text Only | Print | Product List | Glossary On
Versions: 1 2 3 4 5 6 7 8 9 10 11 12 13 14 15 16 17 18 19 20 21 22 23 24 25 26 27
467
FTUS41 KPBZ 060520
TAFMGW
TAF
KMGW 060520Z 0606/0706 35005KT 5SM BR SCT015 BKN050
      TEMPO 0606/0610 2SM BR BKN015
     FM061900 34008KT P6SM -SHRA OVC045
     FM070200 VRB03KT P6SM BKN045=

USA.gov is the U.S. government's official web portal to all federal, state and local government web resources and services.